createdAt,value
2022-10-10T00:01:33.379Z,13.23
2022-10-10T00:04:02.160Z,13.40
2022-10-10T00:06:33.315Z,13.30
2022-10-10T00:09:02.414Z,13.57
2022-10-10T00:11:30.851Z,14.80
2022-10-10T00:13:59.312Z,13.87
2022-10-10T00:16:27.351Z,14.10
2022-10-10T00:18:55.467Z,14.30
2022-10-10T00:21:23.464Z,13.23
2022-10-10T00:23:53.751Z,14.17
2022-10-10T00:26:22.075Z,12.90
2022-10-10T00:28:50.135Z,13.40
2022-10-10T00:31:18.462Z,13.83
2022-10-10T00:33:46.635Z,13.50
2022-10-10T00:36:15.056Z,14.10
2022-10-10T00:38:43.246Z,13.10
2022-10-10T00:41:12.695Z,13.03
2022-10-10T00:43:40.624Z,13.33
2022-10-10T00:46:08.837Z,12.70
2022-10-10T00:48:40.215Z,13.40
2022-10-10T00:51:12.441Z,15.23
2022-10-10T00:53:45.683Z,13.53
2022-10-10T00:56:18.455Z,13.73
2022-10-10T00:58:49.372Z,12.00
2022-10-10T01:01:17.630Z,12.60
2022-10-10T01:03:45.625Z,11.97
2022-10-10T01:06:13.863Z,14.53
2022-10-10T01:08:42.359Z,11.53
2022-10-10T01:11:28.910Z,11.90
2022-10-10T01:14:05.859Z,11.37
2022-10-10T01:16:43.423Z,11.13
2022-10-10T01:19:28.180Z,11.27
2022-10-10T01:22:10.058Z,11.63
2022-10-10T01:24:53.110Z,10.83
2022-10-10T01:27:31.976Z,11.47
2022-10-10T01:30:05.478Z,11.23
2022-10-10T01:32:40.871Z,12.27
2022-10-10T01:35:24.991Z,11.13
2022-10-10T01:38:00.999Z,13.20
2022-10-10T01:40:34.594Z,13.80
2022-10-10T01:43:05.491Z,12.10
2022-10-10T01:45:35.346Z,12.47
2022-10-10T01:48:05.400Z,12.23
2022-10-10T01:50:36.991Z,11.50
2022-10-10T01:53:12.462Z,11.73
2022-10-10T01:55:52.043Z,11.67
2022-10-10T01:58:39.042Z,12.70
2022-10-10T02:01:16.103Z,12.33
2022-10-10T02:03:48.737Z,12.63
2022-10-10T02:06:23.513Z,13.50
2022-10-10T02:08:55.678Z,32.37
2022-10-10T02:11:25.414Z,29.23
2022-10-10T02:13:57.621Z,33.33
2022-10-10T02:16:31.819Z,27.80
2022-10-10T02:19:00.844Z,21.03
2022-10-10T02:21:30.366Z,18.67
2022-10-10T02:24:04.522Z,17.93
2022-10-10T02:26:33.157Z,17.07
2022-10-10T02:29:05.797Z,18.23
2022-10-10T02:31:40.981Z,21.00
2022-10-10T02:34:12.916Z,19.70
2022-10-10T02:36:43.868Z,26.03
2022-10-10T02:39:14.014Z,23.17
2022-10-10T02:41:45.202Z,23.60
2022-10-10T02:44:14.296Z,21.53
2022-10-10T02:46:43.625Z,20.77
2022-10-10T02:49:12.584Z,18.87
2022-10-10T02:51:40.922Z,17.43
2022-10-10T02:54:08.968Z,15.70
2022-10-10T02:56:36.942Z,15.83
2022-10-10T02:59:04.916Z,13.67
2022-10-10T03:01:32.826Z,13.70
2022-10-10T03:04:02.652Z,13.53
2022-10-10T03:06:30.909Z,14.03
2022-10-10T03:08:59.147Z,13.20
2022-10-10T03:11:27.172Z,12.97
2022-10-10T03:13:55.147Z,12.90
2022-10-10T03:16:23.141Z,13.53
2022-10-10T03:18:51.218Z,13.13
2022-10-10T03:21:20.515Z,12.47
2022-10-10T03:23:48.516Z,13.43
2022-10-10T03:26:16.623Z,12.40
2022-10-10T03:28:44.821Z,13.27
2022-10-10T03:31:12.918Z,12.60
2022-10-10T03:33:41.183Z,12.60
2022-10-10T03:36:09.183Z,12.80
2022-10-10T03:38:40.259Z,12.40
2022-10-10T03:41:08.247Z,12.00
2022-10-10T03:43:36.199Z,12.40
2022-10-10T03:46:04.256Z,11.83
2022-10-10T03:48:32.200Z,12.30
2022-10-10T03:51:00.163Z,13.20
2022-10-10T03:53:28.315Z,12.60
2022-10-10T03:55:57.656Z,11.90
2022-10-10T03:58:25.624Z,11.80
2022-10-10T04:00:57.602Z,11.80
2022-10-10T04:03:26.192Z,11.77
2022-10-10T04:05:55.784Z,12.17
2022-10-10T04:08:24.252Z,12.40
2022-10-10T04:10:53.320Z,12.73
2022-10-10T04:13:27.466Z,12.47
2022-10-10T04:15:56.980Z,12.37
2022-10-10T04:18:25.419Z,12.07
2022-10-10T04:20:53.736Z,12.33
2022-10-10T04:23:21.695Z,12.40
2022-10-10T04:25:52.508Z,12.47
2022-10-10T04:28:22.181Z,11.87
2022-10-10T04:30:50.168Z,12.17
2022-10-10T04:33:18.140Z,11.63
2022-10-10T04:35:48.502Z,12.13
2022-10-10T04:38:16.539Z,12.17
2022-10-10T04:40:44.587Z,12.73
2022-10-10T04:43:13.123Z,12.83
2022-10-10T04:45:42.456Z,11.67
2022-10-10T04:48:10.402Z,13.60
2022-10-10T04:50:38.380Z,13.43
2022-10-10T04:53:06.375Z,13.53
2022-10-10T04:55:36.195Z,13.20
2022-10-10T04:58:04.126Z,13.10
2022-10-10T05:00:32.132Z,12.37
2022-10-10T05:03:01.427Z,13.23
2022-10-10T05:05:29.399Z,12.67
2022-10-10T05:07:57.371Z,13.87
2022-10-10T05:10:25.502Z,13.10
2022-10-10T05:12:54.208Z,13.37
2022-10-10T05:15:22.768Z,13.23
2022-10-10T05:17:50.738Z,14.23
2022-10-10T05:20:20.259Z,13.57
2022-10-10T05:22:48.310Z,14.37
2022-10-10T05:25:16.575Z,12.73
2022-10-10T05:27:44.658Z,12.93
2022-10-10T05:30:13.946Z,12.87
2022-10-10T05:32:41.910Z,14.97
2022-10-10T05:35:10.826Z,13.97
2022-10-10T05:37:40.235Z,12.63
2022-10-10T05:40:09.383Z,13.57
2022-10-10T05:42:37.377Z,13.70
2022-10-10T05:45:05.838Z,14.17
2022-10-10T05:47:33.903Z,14.03
2022-10-10T05:50:01.870Z,14.13
2022-10-10T05:52:30.147Z,13.37
2022-10-10T05:54:59.423Z,13.57
2022-10-10T05:57:27.433Z,13.63
2022-10-10T05:59:55.386Z,13.43
2022-10-10T06:02:23.361Z,13.80
2022-10-10T06:04:51.370Z,13.37
2022-10-10T06:07:19.338Z,14.17
2022-10-10T06:09:47.297Z,13.67
2022-10-10T06:12:16.528Z,13.37
2022-10-10T06:14:44.709Z,15.60
2022-10-10T06:17:12.649Z,15.17
2022-10-10T06:19:40.701Z,14.60
2022-10-10T06:22:08.673Z,15.07
2022-10-10T06:24:36.581Z,15.23
2022-10-10T06:27:04.729Z,14.83
2022-10-10T06:29:34.102Z,16.43
2022-10-10T06:32:02.067Z,15.70
2022-10-10T06:34:30.170Z,16.87
2022-10-10T06:36:58.238Z,15.53
2022-10-10T06:39:26.117Z,16.10
2022-10-10T06:41:54.457Z,16.27
2022-10-10T06:44:22.849Z,15.97
2022-10-10T06:46:52.238Z,16.90
2022-10-10T06:49:20.173Z,16.33
2022-10-10T06:51:48.089Z,16.17
2022-10-10T06:54:16.283Z,16.97
2022-10-10T06:56:44.316Z,18.60
2022-10-10T06:59:12.236Z,17.73
2022-10-10T07:01:40.286Z,18.10
2022-10-10T07:04:10.637Z,18.73
2022-10-10T07:06:38.629Z,18.07
2022-10-10T07:09:06.588Z,18.03
2022-10-10T07:11:34.585Z,17.70
2022-10-10T07:14:02.609Z,17.17
2022-10-10T07:16:30.460Z,16.90
2022-10-10T07:18:58.388Z,17.67
2022-10-10T07:21:27.794Z,17.50
2022-10-10T07:23:55.917Z,18.83
2022-10-10T07:26:27.846Z,18.33
2022-10-10T07:28:55.822Z,19.17
2022-10-10T07:31:23.968Z,18.10
2022-10-10T07:33:52.352Z,17.73
2022-10-10T07:36:20.638Z,19.57
2022-10-10T07:38:52.877Z,19.93
2022-10-10T07:41:21.450Z,19.47
2022-10-10T07:43:54.414Z,20.90
2022-10-10T07:46:22.737Z,20.37
2022-10-10T07:48:50.935Z,21.10
2022-10-10T07:51:19.225Z,20.27
2022-10-10T07:53:47.183Z,19.73
2022-10-10T07:56:17.016Z,19.00
2022-10-10T07:58:45.722Z,18.17
2022-10-10T08:01:14.817Z,19.07
2022-10-10T08:03:43.018Z,17.50
2022-10-10T08:06:12.787Z,17.27
2022-10-10T08:08:50.324Z,17.30
2022-10-10T08:11:21.666Z,16.20
2022-10-10T08:13:50.258Z,16.07
2022-10-10T08:16:18.476Z,15.87
2022-10-10T08:18:46.587Z,14.73
2022-10-10T08:21:16.630Z,15.33
2022-10-10T08:23:44.670Z,14.80
2022-10-10T08:26:15.351Z,14.07
2022-10-10T08:28:46.226Z,14.47
2022-10-10T08:31:17.000Z,12.93
2022-10-10T08:33:46.498Z,13.33
2022-10-10T08:36:17.163Z,13.00
2022-10-10T08:38:45.936Z,13.10
2022-10-10T08:41:24.665Z,11.70
2022-10-10T08:43:57.676Z,11.07
2022-10-10T08:46:34.359Z,12.13
2022-10-10T08:49:14.290Z,10.70
2022-10-10T08:51:45.681Z,10.77
2022-10-10T08:54:16.028Z,9.40
2022-10-10T08:56:44.664Z,9.70
2022-10-10T08:59:19.965Z,6.90
2022-10-10T09:02:17.590Z,6.80
2022-10-10T09:04:37.452Z,6.07
2022-10-10T09:07:16.020Z,5.83
2022-10-10T09:09:55.682Z,5.03
2022-10-10T09:12:35.130Z,4.97
2022-10-10T09:15:15.886Z,5.10
2022-10-10T09:17:49.802Z,4.77
2022-10-10T09:20:28.444Z,4.70
2022-10-10T09:23:02.261Z,4.87
2022-10-10T09:25:35.406Z,4.60
2022-10-10T09:28:09.465Z,5.30
2022-10-10T09:30:45.146Z,4.70
2022-10-10T09:33:24.662Z,4.63
2022-10-10T09:35:54.775Z,4.67
2022-10-10T09:38:33.680Z,5.30
2022-10-10T09:41:05.245Z,5.20
2022-10-10T09:43:35.060Z,5.00
2022-10-10T09:46:04.444Z,5.37
2022-10-10T09:48:34.722Z,4.83
2022-10-10T09:51:04.786Z,4.73
2022-10-10T09:53:32.901Z,5.50
2022-10-10T09:56:01.345Z,4.97
2022-10-10T09:58:35.395Z,4.80
2022-10-10T10:01:19.547Z,5.40
2022-10-10T10:04:26.965Z,5.13
2022-10-10T10:07:06.483Z,5.60
2022-10-10T10:09:35.097Z,4.67
2022-10-10T10:12:05.357Z,4.77
2022-10-10T10:14:38.792Z,4.40
2022-10-10T10:17:10.435Z,4.90
2022-10-10T10:19:40.763Z,5.17
2022-10-10T10:22:31.782Z,4.50
2022-10-10T10:25:00.705Z,4.90
2022-10-10T10:27:30.323Z,4.17
2022-10-10T10:29:59.431Z,4.40
2022-10-10T10:32:47.219Z,4.13
2022-10-10T10:35:23.932Z,4.43
2022-10-10T10:38:10.823Z,4.33
2022-10-10T10:40:43.288Z,4.10
2022-10-10T10:43:35.945Z,3.80
2022-10-10T10:46:13.936Z,4.37
2022-10-10T10:48:47.850Z,4.20
2022-10-10T10:51:41.338Z,4.00
2022-10-10T10:54:21.192Z,4.20
2022-10-10T10:56:58.865Z,4.27
2022-10-10T11:00:20.941Z,4.27
2022-10-10T11:03:02.478Z,3.97
2022-10-10T11:05:41.991Z,4.10
2022-10-10T11:08:30.560Z,4.47
2022-10-10T11:11:15.909Z,4.10
2022-10-10T11:13:53.854Z,4.47
2022-10-10T11:16:49.440Z,4.13
2022-10-10T11:19:23.990Z,3.70
2022-10-10T11:21:57.978Z,4.03
2022-10-10T11:24:35.648Z,4.03
2022-10-10T11:27:08.512Z,4.30
2022-10-10T11:29:48.342Z,4.03
2022-10-10T11:32:22.016Z,3.97
2022-10-10T11:35:04.050Z,4.30
2022-10-10T11:37:38.093Z,4.10
2022-10-10T11:40:07.977Z,3.83
2022-10-10T11:42:43.301Z,4.17
2022-10-10T11:45:17.125Z,4.40
2022-10-10T11:47:50.618Z,4.20
2022-10-10T11:50:22.903Z,4.57
2022-10-10T11:52:58.472Z,4.23
2022-10-10T11:55:32.674Z,3.83
2022-10-10T11:58:31.272Z,4.40
2022-10-10T12:01:02.940Z,4.50
2022-10-10T12:03:31.094Z,4.17
2022-10-10T12:06:03.879Z,4.17
2022-10-10T12:08:38.620Z,4.00
2022-10-10T12:11:18.531Z,4.03
2022-10-10T12:13:49.971Z,4.40
2022-10-10T12:16:21.727Z,4.27
2022-10-10T12:18:54.796Z,3.83
2022-10-10T12:21:25.984Z,4.57
2022-10-10T12:24:05.949Z,4.50
2022-10-10T12:27:11.069Z,4.03
2022-10-10T12:29:46.819Z,3.90
2022-10-10T12:32:27.525Z,4.20
2022-10-10T12:35:01.069Z,4.60
2022-10-10T12:37:31.812Z,3.90
2022-10-10T12:40:22.879Z,3.90
2022-10-10T12:43:20.604Z,4.47
2022-10-10T12:46:07.948Z,4.17
2022-10-10T12:48:36.703Z,4.90
2022-10-10T12:51:05.500Z,6.33
2022-10-10T12:53:35.381Z,3.90
2022-10-10T12:56:05.119Z,4.23
2022-10-10T12:58:36.036Z,4.00
2022-10-10T13:01:07.717Z,4.45
2022-10-10T13:03:39.832Z,3.80
2022-10-10T13:06:16.418Z,3.95
2022-10-10T13:08:44.933Z,4.00
2022-10-10T13:11:15.739Z,4.82
2022-10-10T13:13:51.723Z,4.37
2022-10-10T13:16:22.188Z,4.27
2022-10-10T13:18:52.774Z,4.00
2022-10-10T13:21:23.235Z,4.20
2022-10-10T13:26:49.146Z,4.53
2022-10-10T13:29:26.830Z,3.97
2022-10-10T13:31:58.642Z,4.30
2022-10-10T13:34:29.112Z,4.10
2022-10-10T13:36:58.668Z,4.43
2022-10-10T13:39:27.742Z,4.27
2022-10-10T13:41:58.255Z,4.50
2022-10-10T13:44:32.228Z,4.13
2022-10-10T13:47:00.307Z,4.63
2022-10-10T13:49:29.846Z,4.70
2022-10-10T13:52:06.567Z,4.27
2022-10-10T13:54:42.802Z,4.30
2022-10-10T13:57:18.603Z,4.50
2022-10-10T13:59:49.942Z,4.63
2022-10-10T14:02:20.454Z,4.43
2022-10-10T14:04:52.494Z,4.97
2022-10-10T14:07:24.313Z,4.40
2022-10-10T14:09:56.646Z,4.53
2022-10-10T14:12:31.796Z,5.27
2022-10-10T14:15:00.976Z,4.63
2022-10-10T14:17:30.474Z,4.53
2022-10-10T14:19:58.725Z,4.57
2022-10-10T14:22:27.657Z,4.50
2022-10-10T14:24:55.602Z,4.90
2022-10-10T14:27:26.086Z,5.20
2022-10-10T14:29:57.374Z,5.10
2022-10-10T14:32:25.621Z,4.90
2022-10-10T14:34:53.541Z,5.40
2022-10-10T14:37:24.525Z,4.63
2022-10-10T14:39:52.853Z,4.97
2022-10-10T14:42:22.698Z,4.37
2022-10-10T14:44:50.670Z,4.50
2022-10-10T14:47:22.300Z,5.07
2022-10-10T14:49:50.424Z,4.83
2022-10-10T14:52:18.461Z,4.77
2022-10-10T14:54:46.449Z,5.10
2022-10-10T14:57:15.408Z,4.57
2022-10-10T14:59:46.096Z,4.57
2022-10-10T15:02:22.538Z,5.37
2022-10-10T15:04:50.883Z,5.73
2022-10-10T15:07:19.851Z,5.17
2022-10-10T15:10:19.171Z,5.27
2022-10-10T15:12:38.929Z,4.90
2022-10-10T15:15:08.389Z,4.90
2022-10-10T15:17:37.933Z,4.83
2022-10-10T15:20:07.928Z,5.10
2022-10-10T15:22:36.068Z,5.10
2022-10-10T15:25:04.253Z,5.43
2022-10-10T15:27:32.805Z,6.60
2022-10-10T15:30:01.257Z,6.13
2022-10-10T15:32:29.281Z,6.83
2022-10-10T15:34:58.886Z,5.33
2022-10-10T15:37:28.091Z,6.40
2022-10-10T15:39:56.506Z,8.23
2022-10-10T15:42:24.554Z,7.97
2022-10-10T15:44:52.910Z,8.77
2022-10-10T15:47:21.809Z,6.43
2022-10-10T15:49:49.955Z,5.90
2022-10-10T15:52:22.974Z,5.40
2022-10-10T15:54:51.691Z,5.27
2022-10-10T15:57:19.948Z,4.80
2022-10-10T15:59:48.106Z,5.70
2022-10-10T16:02:16.360Z,5.40
2022-10-10T16:04:44.895Z,6.47
2022-10-10T16:07:26.862Z,7.03
2022-10-10T16:10:01.246Z,6.60
2022-10-10T16:12:29.245Z,6.40
2022-10-10T16:14:57.243Z,5.73
2022-10-10T16:17:25.499Z,6.97
2022-10-10T16:19:53.469Z,6.70
2022-10-10T16:22:21.483Z,6.20
2022-10-10T16:25:10.238Z,5.80
2022-10-10T16:27:39.888Z,6.90
2022-10-10T16:30:09.152Z,6.20
2022-10-10T16:32:41.946Z,6.40
2022-10-10T16:35:11.065Z,6.43
2022-10-10T16:37:39.395Z,6.37
2022-10-10T16:40:08.794Z,6.27
2022-10-10T16:42:38.331Z,6.20
2022-10-10T16:45:07.464Z,5.57
2022-10-10T16:47:35.487Z,5.90
2022-10-10T16:50:04.524Z,5.70
2022-10-10T16:52:33.164Z,6.60
2022-10-10T16:55:01.136Z,6.03
2022-10-10T16:57:29.087Z,6.50
2022-10-10T16:59:58.372Z,6.57
2022-10-10T17:02:26.376Z,7.53
2022-10-10T17:04:55.237Z,6.63
2022-10-10T17:07:23.163Z,6.40
2022-10-10T17:09:51.219Z,6.20
2022-10-10T17:12:19.422Z,5.30
2022-10-10T17:14:47.450Z,5.20
2022-10-10T17:17:17.449Z,5.63
2022-10-10T17:19:45.990Z,5.73
2022-10-10T17:22:13.982Z,4.87
2022-10-10T17:24:41.918Z,5.87
2022-10-10T17:27:09.846Z,5.40
2022-10-10T17:29:37.785Z,5.53
2022-10-10T17:32:06.976Z,5.10
2022-10-10T17:34:36.645Z,4.80
2022-10-10T17:37:05.513Z,5.47
2022-10-10T17:39:34.185Z,4.53
2022-10-10T17:42:04.716Z,4.60
2022-10-10T17:44:39.070Z,5.10
2022-10-10T17:47:10.280Z,5.03
2022-10-10T17:49:45.105Z,4.97
2022-10-10T17:52:15.582Z,4.87
2022-10-10T17:54:47.107Z,4.97
2022-10-10T17:57:15.786Z,4.50
2022-10-10T17:59:43.784Z,5.00
2022-10-10T18:02:15.056Z,4.47
2022-10-10T18:04:44.570Z,4.30
2022-10-10T18:07:12.905Z,4.13
2022-10-10T18:09:40.910Z,4.93
2022-10-10T18:12:09.113Z,4.57
2022-10-10T18:14:37.049Z,4.17
2022-10-10T18:17:05.205Z,4.60
2022-10-10T18:19:33.345Z,4.40
2022-10-10T18:22:02.723Z,4.10
2022-10-10T18:24:30.907Z,4.20
2022-10-10T18:26:58.866Z,4.23
2022-10-10T18:29:26.874Z,4.13
2022-10-10T18:31:56.391Z,4.80
2022-10-10T18:34:24.366Z,4.17
2022-10-10T18:36:52.305Z,4.17
2022-10-10T18:39:21.604Z,4.67
2022-10-10T18:41:49.677Z,4.13
2022-10-10T18:44:18.943Z,3.97
2022-10-10T18:46:47.195Z,3.73
2022-10-10T18:49:15.232Z,4.63
2022-10-10T18:51:44.303Z,4.57
2022-10-10T18:54:14.896Z,4.67
2022-10-10T18:56:45.064Z,4.67
2022-10-10T18:59:15.180Z,4.03
2022-10-10T19:01:45.596Z,4.13
2022-10-10T19:04:15.840Z,4.23
2022-10-10T19:06:44.736Z,4.47
2022-10-10T19:09:15.295Z,4.63
2022-10-10T19:11:48.495Z,4.57
2022-10-10T19:14:18.514Z,4.63
2022-10-10T19:16:47.994Z,5.43
2022-10-10T19:19:17.708Z,5.27
2022-10-10T19:21:48.010Z,5.40
2022-10-10T19:24:20.718Z,5.73
2022-10-10T19:26:54.872Z,5.70
2022-10-10T19:29:23.332Z,5.47
2022-10-10T19:31:51.704Z,5.77
2022-10-10T19:34:19.784Z,5.37
2022-10-10T19:36:47.678Z,6.00
2022-10-10T19:39:15.739Z,6.97
2022-10-10T19:41:43.718Z,7.57
2022-10-10T19:44:13.264Z,8.13
2022-10-10T19:46:41.314Z,6.17
2022-10-10T19:49:11.023Z,5.97
2022-10-10T19:51:39.140Z,7.47
2022-10-10T19:54:07.179Z,6.40
2022-10-10T19:56:36.662Z,6.50
2022-10-10T19:59:05.760Z,6.33
2022-10-10T20:01:35.173Z,5.93
2022-10-10T20:04:03.162Z,5.90
2022-10-10T20:06:31.191Z,5.87
2022-10-10T20:08:59.268Z,5.73
2022-10-10T20:11:27.431Z,5.97
2022-10-10T20:13:55.974Z,7.23
2022-10-10T20:16:24.891Z,5.73
2022-10-10T20:18:54.500Z,5.63
2022-10-10T20:21:24.546Z,5.70
2022-10-10T20:23:52.967Z,5.47
2022-10-10T20:26:23.314Z,6.63
2022-10-10T20:28:52.656Z,5.43
2022-10-10T20:31:23.273Z,5.67
2022-10-10T20:33:52.350Z,5.50
2022-10-10T20:36:23.415Z,6.37
2022-10-10T20:38:54.948Z,5.70
2022-10-10T20:41:24.764Z,5.60
2022-10-10T20:43:58.074Z,5.97
2022-10-10T20:46:27.659Z,7.27
2022-10-10T20:48:56.262Z,6.30
2022-10-10T20:51:27.202Z,5.57
2022-10-10T20:53:57.546Z,5.53
2022-10-10T20:56:26.290Z,5.53
2022-10-10T20:58:54.490Z,6.70
2022-10-10T21:01:24.157Z,6.30
2022-10-10T21:03:52.371Z,6.00
2022-10-10T21:06:22.959Z,5.80
2022-10-10T21:08:53.085Z,5.50
2022-10-10T21:11:23.097Z,5.83
2022-10-10T21:13:54.198Z,5.80
2022-10-10T21:16:23.246Z,6.20
2022-10-10T21:18:57.556Z,5.87
2022-10-10T21:21:26.987Z,6.37
2022-10-10T21:23:56.984Z,5.93
2022-10-10T21:26:27.025Z,8.77
2022-10-10T21:28:55.937Z,6.93
2022-10-10T21:31:25.526Z,6.70
2022-10-10T21:33:54.223Z,7.20
2022-10-10T21:36:23.969Z,7.07
2022-10-10T21:38:51.937Z,6.43
2022-10-10T21:41:22.545Z,6.33
2022-10-10T21:43:52.908Z,6.47
2022-10-10T21:46:23.450Z,6.37
2022-10-10T21:48:51.930Z,6.77
2022-10-10T21:51:20.079Z,6.47
2022-10-10T21:53:48.593Z,6.70
2022-10-10T21:56:16.558Z,6.73
2022-10-10T21:58:46.349Z,6.17
2022-10-10T22:01:17.445Z,6.47
2022-10-10T22:03:46.550Z,5.90
2022-10-10T22:06:18.968Z,6.53
2022-10-10T22:08:48.085Z,7.00
2022-10-10T22:11:18.166Z,7.43
2022-10-10T22:13:48.022Z,6.90
2022-10-10T22:16:16.371Z,6.67
2022-10-10T22:18:44.575Z,7.60
2022-10-10T22:21:15.531Z,6.97
2022-10-10T22:23:43.681Z,7.17
2022-10-10T22:26:13.773Z,7.73
2022-10-10T22:28:42.204Z,7.00
2022-10-10T22:31:13.423Z,6.77
2022-10-10T22:33:41.409Z,7.93
2022-10-10T22:36:10.285Z,8.57
2022-10-10T22:38:39.957Z,8.63
2022-10-10T22:41:08.076Z,9.30
2022-10-10T22:43:36.207Z,8.80
2022-10-10T22:46:05.283Z,9.20
2022-10-10T22:48:35.156Z,9.53
2022-10-10T22:51:05.163Z,8.40
2022-10-10T22:53:33.334Z,8.20
2022-10-10T22:56:01.751Z,9.53
2022-10-10T22:58:31.808Z,9.23
2022-10-10T23:01:04.892Z,8.60
2022-10-10T23:03:34.352Z,9.23
2022-10-10T23:06:03.120Z,8.30
2022-10-10T23:08:31.668Z,8.47
2022-10-10T23:10:59.840Z,9.70
2022-10-10T23:13:28.102Z,8.30
2022-10-10T23:15:56.736Z,8.60
2022-10-10T23:18:24.968Z,8.83
2022-10-10T23:20:54.364Z,7.97
2022-10-10T23:23:22.347Z,8.23
2022-10-10T23:25:50.384Z,8.90
2022-10-10T23:28:18.876Z,8.00
2022-10-10T23:30:48.595Z,8.23
2022-10-10T23:33:17.993Z,9.17
2022-10-10T23:35:46.095Z,8.73
2022-10-10T23:38:15.720Z,8.40
2022-10-10T23:40:43.687Z,8.00
2022-10-10T23:43:11.639Z,7.97
2022-10-10T23:45:41.379Z,8.23
2022-10-10T23:48:09.639Z,7.43
2022-10-10T23:50:37.665Z,7.60
2022-10-10T23:53:05.699Z,7.67
2022-10-10T23:55:35.679Z,7.13
2022-10-10T23:58:03.911Z,8.00
